sensor_id;sensor_type;location;lat;lon;timestamp;pressure;altitude;pressure_sealevel;temperature;humidity
49055;BME280;35405;52.344;14.530;2023-04-03T14:59:14;102211.25;;;4.84;100.00
49055;BME280;35405;52.344;14.530;2023-04-03T15:01:40;102209.44;;;4.78;100.00
49055;BME280;35405;52.344;14.530;2023-04-03T15:04:10;102200.81;;;5.01;100.00
49055;BME280;35405;52.344;14.530;2023-04-03T15:06:35;102213.13;;;5.22;100.00
49055;BME280;35405;52.344;14.530;2023-04-03T15:09:01;102211.75;;;5.38;100.00
49055;BME280;35405;52.344;14.530;2023-04-03T15:11:28;102210.00;;;5.25;100.00
49055;BME280;35405;52.344;14.530;2023-04-03T15:13:53;102199.50;;;5.10;100.00
49055;BME280;35405;52.344;14.530;2023-04-03T15:16:18;102211.63;;;4.94;100.00
49055;BME280;35405;52.344;14.530;2023-04-03T15:18:44;102204.84;;;4.85;100.00
49055;BME280;35405;52.344;14.530;2023-04-03T15:21:10;102214.81;;;4.85;100.00
49055;BME280;35405;52.344;14.530;2023-04-03T15:23:35;102208.75;;;4.89;100.00
49055;BME280;35405;52.344;14.530;2023-04-03T15:26:01;102203.97;;;4.91;100.00
49055;BME280;35405;52.344;14.530;2023-04-03T15:28:30;102200.84;;;4.94;100.00
49055;BME280;35405;52.344;14.530;2023-04-03T15:30:57;102204.94;;;5.03;100.00
49055;BME280;35405;52.344;14.530;2023-04-03T15:33:22;102207.94;;;4.89;100.00
49055;BME280;35405;52.344;14.530;2023-04-03T15:35:47;102209.03;;;4.74;100.00
49055;BME280;35405;52.344;14.530;2023-04-03T15:38:13;102210.41;;;4.90;100.00
49055;BME280;35405;52.344;14.530;2023-04-03T15:40:38;102200.06;;;4.87;100.00
49055;BME280;35405;52.344;14.530;2023-04-03T15:43:04;102204.34;;;4.56;100.00
49055;BME280;35405;52.344;14.530;2023-04-03T15:45:31;102195.38;;;4.24;100.00
49055;BME280;35405;52.344;14.530;2023-04-03T15:47:56;102208.22;;;4.09;100.00
49055;BME280;35405;52.344;14.530;2023-04-03T15:50:22;102211.59;;;3.98;100.00
49055;BME280;35405;52.344;14.530;2023-04-03T15:52:48;102206.19;;;3.91;100.00
49055;BME280;35405;52.344;14.530;2023-04-03T15:55:19;102210.97;;;3.76;100.00
49055;BME280;35405;52.344;14.530;2023-04-03T15:57:44;102201.88;;;3.77;100.00
49055;BME280;35405;52.344;14.530;2023-04-03T16:00:09;102203.09;;;3.81;100.00
49055;BME280;35405;52.344;14.530;2023-04-03T16:02:35;102208.09;;;3.77;100.00
49055;BME280;35405;52.344;14.530;2023-04-03T16:05:00;102210.97;;;3.76;100.00
49055;BME280;35405;52.344;14.530;2023-04-03T16:07:25;102209.13;;;3.76;100.00
49055;BME280;35405;52.344;14.530;2023-04-03T16:09:51;102206.22;;;3.71;100.00
49055;BME280;35405;52.344;14.530;2023-04-03T16:12:16;102214.91;;;3.66;100.00
49055;BME280;35405;52.344;14.530;2023-04-03T16:14:41;102206.66;;;3.61;100.00
49055;BME280;35405;52.344;14.530;2023-04-03T16:17:06;102216.56;;;3.61;100.00
49055;BME280;35405;52.344;14.530;2023-04-03T16:19:32;102218.84;;;3.57;100.00
49055;BME280;35405;52.344;14.530;2023-04-03T16:21:57;102213.88;;;3.54;100.00
49055;BME280;35405;52.344;14.530;2023-04-03T16:24:22;102216.97;;;3.58;100.00
49055;BME280;35405;52.344;14.530;2023-04-03T16:26:48;102211.81;;;3.56;100.00
49055;BME280;35405;52.344;14.530;2023-04-03T16:29:13;102210.19;;;3.55;100.00
49055;BME280;35405;52.344;14.530;2023-04-03T16:31:38;102218.84;;;3.57;100.00
49055;BME280;35405;52.344;14.530;2023-04-03T16:34:03;102216.56;;;3.61;100.00
49055;BME280;35405;52.344;14.530;2023-04-03T16:36:29;102207.91;;;3.59;100.00
49055;BME280;35405;52.344;14.530;2023-04-03T16:38:54;102205.81;;;3.61;100.00
49055;BME280;35405;52.344;14.530;2023-04-03T16:41:19;102212.88;;;3.55;100.00
49055;BME280;35405;52.344;14.530;2023-04-03T16:43:44;102217.41;;;3.48;100.00
49055;BME280;35405;52.344;14.530;2023-04-03T16:46:10;102214.53;;;3.43;100.00
49055;BME280;35405;52.344;14.530;2023-04-03T16:48:35;102214.06;;;3.39;100.00
49055;BME280;35405;52.344;14.530;2023-04-03T16:51:00;102207.25;;;3.30;100.00
49055;BME280;35405;52.344;14.530;2023-04-03T16:53:25;102210.75;;;3.24;100.00
49055;BME280;35405;52.344;14.530;2023-04-03T16:55:50;102208.69;;;3.19;100.00
49055;BME280;35405;52.344;14.530;2023-04-03T16:58:16;102204.16;;;3.13;100.00
49055;BME280;35405;52.344;14.530;2023-04-03T17:00:41;102211.16;;;3.08;100.00
49055;BME280;35405;52.344;14.530;2023-04-03T17:03:07;102203.28;;;3.00;100.00
49055;BME280;35405;52.344;14.530;2023-04-03T17:05:32;102202.84;;;2.96;100.00
49055;BME280;35405;52.344;14.530;2023-04-03T17:07:57;102201.81;;;2.90;100.00
49055;BME280;35405;52.344;14.530;2023-04-03T17:10:23;102201.56;;;2.85;100.00
49055;BME280;35405;52.344;14.530;2023-04-03T17:12:48;102194.16;;;2.81;100.00
49055;BME280;35405;52.344;14.530;2023-04-03T17:15:13;102198.66;;;2.73;100.00
49055;BME280;35405;52.344;14.530;2023-04-03T17:17:39;102197.16;;;2.64;100.00
49055;BME280;35405;52.344;14.530;2023-04-03T17:20:04;102208.13;;;2.63;100.00
49055;BME280;35405;52.344;14.530;2023-04-03T17:22:29;102197.56;;;2.61;100.00
49055;BME280;35405;52.344;14.530;2023-04-03T17:24:56;102204.38;;;2.57;100.00
49055;BME280;35405;52.344;14.530;2023-04-03T17:27:22;102201.47;;;2.52;100.00
49055;BME280;35405;52.344;14.530;2023-04-03T17:29:47;102201.88;;;2.49;100.00
49055;BME280;35405;52.344;14.530;2023-04-03T17:32:12;102198.56;;;2.47;100.00
49055;BME280;35405;52.344;14.530;2023-04-03T17:34:37;102198.53;;;2.40;100.00
49055;BME280;35405;52.344;14.530;2023-04-03T17:37:03;102199.38;;;2.41;100.00
49055;BME280;35405;52.344;14.530;2023-04-03T17:39:29;102201.03;;;2.42;100.00
49055;BME280;35405;52.344;14.530;2023-04-03T17:41:54;102209.25;;;2.40;100.00
49055;BME280;35405;52.344;14.530;2023-04-03T17:44:20;102199.78;;;2.38;100.00
49055;BME280;35405;52.344;14.530;2023-04-03T17:46:45;102208.66;;;2.38;100.00
49055;BME280;35405;52.344;14.530;2023-04-03T17:49:10;102200.38;;;2.40;100.00
49055;BME280;35405;52.344;14.530;2023-04-03T17:51:39;102206.97;;;2.37;100.00
49055;BME280;35405;52.344;14.530;2023-04-03T17:54:04;102207.19;;;2.36;100.00
49055;BME280;35405;52.344;14.530;2023-04-03T17:56:29;102214.22;;;2.37;100.00
49055;BME280;35405;52.344;14.530;2023-04-03T17:58:55;102210.06;;;2.34;100.00
49055;BME280;35405;52.344;14.530;2023-04-03T18:01:24;102208.59;;;2.32;100.00
49055;BME280;35405;52.344;14.530;2023-04-03T18:03:54;102209.44;;;2.32;100.00
49055;BME280;35405;52.344;14.530;2023-04-03T18:06:20;102218.31;;;2.33;100.00
49055;BME280;35405;52.344;14.530;2023-04-03T18:08:50;102218.50;;;2.31;100.00
49055;BME280;35405;52.344;14.530;2023-04-03T18:11:15;102221.19;;;2.31;100.00
49055;BME280;35405;52.344;14.530;2023-04-03T18:13:41;102218.72;;;2.29;100.00
49055;BME280;35405;52.344;14.530;2023-04-03T18:16:08;102234.19;;;2.27;100.00
49055;BME280;35405;52.344;14.530;2023-04-03T18:18:33;102226.97;;;2.28;100.00
49055;BME280;35405;52.344;14.530;2023-04-03T18:20:59;102228.81;;;2.27;100.00
49055;BME280;35405;52.344;14.530;2023-04-03T18:23:24;102234.19;;;2.27;100.00
49055;BME280;35405;52.344;14.530;2023-04-03T18:25:50;102240.59;;;2.26;100.00
49055;BME280;35405;52.344;14.530;2023-04-03T18:28:16;102241.38;;;2.20;100.00
49055;BME280;35405;52.344;14.530;2023-04-03T18:30:41;102232.50;;;2.20;100.00
49055;BME280;35405;52.344;14.530;2023-04-03T18:33:06;102230.22;;;2.17;100.00
49055;BME280;35405;52.344;14.530;2023-04-03T18:35:31;102236.41;;;2.17;100.00
49055;BME280;35405;52.344;14.530;2023-04-03T18:37:57;102235.78;;;2.15;100.00
49055;BME280;35405;52.344;14.530;2023-04-03T18:40:22;102235.53;;;2.10;100.00
49055;BME280;35405;52.344;14.530;2023-04-03T18:42:47;102233.63;;;2.04;100.00
49055;BME280;35405;52.344;14.530;2023-04-03T18:45:12;102226.38;;;1.98;100.00
49055;BME280;35405;52.344;14.530;2023-04-03T18:47:41;102229.22;;;1.90;100.00
49055;BME280;35405;52.344;14.530;2023-04-03T18:50:07;102227.69;;;1.80;100.00
49055;BME280;35405;52.344;14.530;2023-04-03T18:52:33;102227.69;;;1.80;100.00
49055;BME280;35405;52.344;14.530;2023-04-03T18:54:58;102222.09;;;1.75;100.00
49055;BME280;35405;52.344;14.530;2023-04-03T18:57:23;102226.16;;;1.71;100.00
49055;BME280;35405;52.344;14.530;2023-04-03T18:59:50;102224.53;;;1.70;100.00
49055;BME280;35405;52.344;14.530;2023-04-03T19:02:15;102217.06;;;1.66;100.00
49055;BME280;35405;52.344;14.530;2023-04-03T19:04:42;102225.69;;;1.61;100.00
49055;BME280;35405;52.344;14.530;2023-04-03T19:07:07;102223.56;;;1.56;100.00
49055;BME280;35405;52.344;14.530;2023-04-03T19:09:33;102232.22;;;1.52;100.00
49055;BME280;35405;52.344;14.530;2023-04-03T19:11:58;102233.44;;;1.49;100.00
49055;BME280;35405;52.344;14.530;2023-04-03T19:14:25;102226.16;;;1.43;100.00
49055;BME280;35405;52.344;14.530;2023-04-03T19:16:50;102232.72;;;1.41;100.00
49055;BME280;35405;52.344;14.530;2023-04-03T19:19:15;102229.03;;;1.42;100.00
49055;BME280;35405;52.344;14.530;2023-04-03T19:21:41;102230.31;;;1.46;100.00
49055;BME280;35405;52.344;14.530;2023-04-03T19:24:07;102227.63;;;1.46;100.00
49055;BME280;35405;52.344;14.530;2023-04-03T19:26:32;102229.31;;;1.53;100.00
49055;BME280;35405;52.344;14.530;2023-04-03T19:28:57;102233.28;;;1.57;100.00
49055;BME280;35405;52.344;14.530;2023-04-03T19:31:22;102225.69;;;1.61;100.00
49055;BME280;35405;52.344;14.530;2023-04-03T19:33:48;102227.97;;;1.64;100.00
49055;BME280;35405;52.344;14.530;2023-04-03T19:36:14;102227.41;;;1.69;100.00
49055;BME280;35405;52.344;14.530;2023-04-03T19:38:39;102229.06;;;1.70;100.00
49055;BME280;35405;52.344;14.530;2023-04-03T19:41:24;102234.00;;;1.66;100.00
49055;BME280;35405;52.344;14.530;2023-04-03T19:43:51;102233.34;;;1.64;100.00
49055;BME280;35405;52.344;14.530;2023-04-03T19:46:17;102236.41;;;1.61;100.00
49055;BME280;35405;52.344;14.530;2023-04-03T19:48:43;102232.69;;;1.62;100.00
49055;BME280;35405;52.344;14.530;2023-04-03T19:51:08;102230.00;;;1.62;100.00
49055;BME280;35405;52.344;14.530;2023-04-03T19:53:34;102229.00;;;1.63;100.00
49055;BME280;35405;52.344;14.530;2023-04-03T19:55:59;102223.81;;;1.62;100.00
49055;BME280;35405;52.344;14.530;2023-04-03T19:58:24;102223.66;;;1.63;100.00
49055;BME280;35405;52.344;14.530;2023-04-03T20:00:53;102220.75;;;1.65;100.00
49055;BME280;35405;52.344;14.530;2023-04-03T20:03:19;102223.81;;;1.62;100.00
49055;BME280;35405;52.344;14.530;2023-04-03T20:05:45;102218.03;;;1.58;100.00
49055;BME280;35405;52.344;14.530;2023-04-03T20:08:10;102211.03;;;1.57;100.00
49055;BME280;35405;52.344;14.530;2023-04-03T20:10:36;102223.41;;;1.58;100.00
49055;BME280;35405;52.344;14.530;2023-04-03T20:13:04;102224.59;;;1.55;100.00
49055;BME280;35405;52.344;14.530;2023-04-03T20:15:32;102221.50;;;1.52;100.00
49055;BME280;35405;52.344;14.530;2023-04-03T20:18:04;102210.13;;;1.50;100.00
49055;BME280;35405;52.344;14.530;2023-04-03T20:20:29;102218.75;;;1.45;100.00
